This is the latest recevied weather packets stored in our database for station/object OE6PWE-13. If no packets are shown the sender has not sent any weather packets the latest 10 day(s).
| Time | Temp. | Humidity | Pressure | Rain* | Wind** | Luminosity | Snow |
|---|---|---|---|---|---|---|---|
| 1788507911 | 21.67° C | 74% | 1020 hPa | 0 mm | - | - | - |
| 1788507012 | 21.11° C | 78% | 1020 hPa | 0 mm | - | - | - |
| 1788506112 | 18.89° C | 86% | 1020 hPa | 0 mm | - | - | - |
| 1788505211 | 17.22° C | 93% | 1020 hPa | 0 mm | - | - | - |
| 1788504311 | 16.67° C | 97% | 1020 hPa | 0 mm | - | - | - |
| 1788503437 | 15.56° C | 99% | 1021 hPa | 0 mm | - | - | - |
| 1788502512 | 15° C | 99% | 1021 hPa | 0 mm | - | - | - |
| 1788501612 | 15° C | 99% | 1021 hPa | 0 mm | - | - | - |
| 1788500712 | 15° C | 99% | 1021 hPa | 0 mm | - | - | - |
| 1788499812 | 15° C | 99% | 1021 hPa | 0 mm | - | - | - |
| 1788498912 | 15° C | 99% | 1021 hPa | 0 mm | - | - | - |
| 1788498011 | 15° C | 99% | 1021 hPa | 0 mm | - | - | - |
| 1788497112 | 15° C | 99% | 1021 hPa | 0 mm | - | - | - |
| 1788496211 | 15.56° C | 99% | 1021 hPa | 0 mm | - | - | - |
| 1788495312 | 15.56° C | 99% | 1021 hPa | 0 mm | - | - | - |
| 1788494411 | 15.56° C | 99% | 1020 hPa | 0 mm | - | - | - |
| 1788493511 | 16.11° C | 99% | 1021 hPa | 0 mm | - | - | - |
| 1788492611 | 16.11° C | 98% | 1020 hPa | 0 mm | - | - | - |
| 1788491711 | 16.11° C | 97% | 1021 hPa | 0 mm | - | - | - |
| 1788490812 | 16.67° C | 96% | 1021 hPa | 0 mm | - | - | - |
| 1788489912 | 17.22° C | 96% | 1020 hPa | 0 mm | - | - | - |
| 1788489011 | 17.22° C | 95% | 1020 hPa | 0 mm | - | - | - |
| 1788488111 | 17.22° C | 95% | 1020 hPa | 0 mm | - | - | - |
| 1788487212 | 17.22° C | 95% | 1021 hPa | 0 mm | - | - | - |
| 1788486312 | 17.22° C | 95% | 1021 hPa | 0 mm | - | - | - |
* Rain latest hour (hover to see other rain measurements)
** Current wind speed in m/s (hover to see current wind gust speed)